Time;durP1;ratioP1;P1;durP2;ratioP2;P2;SDS_P1;SDS_P2;PMS_P1;PMS_P2;Temp;Humidity;BMP_temperature;BMP_pressure;BME280_temperature;BME280_humidity;BME280_pressure;Samples;Min_cycle;Max_cycle;Signal;HPM_P1;HPM_P2
2023/01/30 00:00:11;;;;;;;46.13;25.87;;;2.20;99.90;;;;;;4903171;29;20812;-63
2023/01/30 00:02:39;;;;;;;45.37;25.00;;;2.30;99.90;;;;;;4903171;29;20511;-63
2023/01/30 00:05:08;;;;;;;44.20;25.77;;;2.30;99.90;;;;;;4903215;29;20469;-63
2023/01/30 00:07:39;;;;;;;47.43;25.60;;;2.30;99.90;;;;;;4902953;29;20474;-64
2023/01/30 00:10:08;;;;;;;46.93;26.13;;;2.30;99.90;;;;;;4903509;29;20823;-63
2023/01/30 00:15:59;;;;;;;40.00;22.00;;;2.40;99.90;;;;;;5671399;23;20415;-64
2023/01/30 00:18:29;;;;;;;45.17;24.43;;;2.40;99.90;;;;;;4901494;29;20860;-64
2023/01/30 00:20:56;;;;;;;44.50;26.43;;;2.50;99.90;;;;;;4902337;29;20505;-64
2023/01/30 00:23:25;;;;;;;49.40;25.87;;;2.60;99.90;;;;;;4902497;29;20488;-64
2023/01/30 00:25:52;;;;;;;45.03;23.90;;;2.50;99.90;;;;;;4902942;29;20477;-63
2023/01/30 00:28:20;;;;;;;42.60;24.30;;;2.60;99.90;;;;;;4902805;29;20473;-64
2023/01/30 00:30:51;;;;;;;49.20;27.00;;;2.60;99.90;;;;;;4902924;29;20797;-64
2023/01/30 00:33:21;;;;;;;46.00;25.77;;;2.70;99.90;;;;;;4903134;29;20832;-62
2023/01/30 00:40:59;;;;;;;43.20;24.00;;;2.70;99.90;;;;;;3862907;23;20529;-64
2023/01/30 00:49:02;;;;;;;43.90;23.43;;;2.70;99.90;;;;;;4902934;29;20945;-63
2023/01/30 00:51:29;;;;;;;44.97;25.27;;;2.80;99.90;;;;;;4903141;29;20473;-63
2023/01/30 00:53:56;;;;;;;48.63;25.80;;;2.70;99.90;;;;;;4903449;29;20480;-63
2023/01/30 00:56:23;;;;;;;40.10;23.17;;;2.70;99.90;;;;;;4903103;29;20465;-63
2023/01/30 00:58:50;;;;;;;47.73;25.50;;;2.80;99.90;;;;;;4902914;29;20472;-63
2023/01/30 01:01:17;;;;;;;39.13;23.20;;;2.70;99.90;;;;;;4902805;29;20473;-63
2023/01/30 01:03:44;;;;;;;41.67;24.27;;;2.80;99.90;;;;;;4903223;29;20761;-63
2023/01/30 01:06:13;;;;;;;41.40;25.73;;;2.80;99.90;;;;;;4903009;29;20476;-62
2023/01/30 01:08:40;;;;;;;42.03;24.10;;;2.80;99.90;;;;;;4903166;29;20444;-63
2023/01/30 01:11:08;;;;;;;42.57;24.43;;;2.90;99.90;;;;;;4902378;29;20436;-62
2023/01/30 01:13:35;;;;;;;44.33;25.40;;;2.90;99.90;;;;;;4902826;29;20513;-63
2023/01/30 01:16:03;;;;;;;41.70;25.30;;;2.90;99.90;;;;;;4902861;29;20473;-63
2023/01/30 01:18:30;;;;;;;46.77;25.13;;;3.00;99.90;;;;;;4902893;29;20470;-63
2023/01/30 01:20:57;;;;;;;45.07;25.50;;;3.00;99.90;;;;;;4902264;29;20509;-63
2023/01/30 01:23:26;;;;;;;43.80;24.57;;;3.00;99.90;;;;;;4903070;29;20511;-63
2023/01/30 01:25:53;;;;;;;43.73;23.60;;;3.00;99.90;;;;;;4902555;29;20453;-63
2023/01/30 01:28:21;;;;;;;46.47;24.53;;;3.00;99.90;;;;;;4902727;29;20473;-63
2023/01/30 01:30:48;;;;;;;40.67;23.97;;;3.10;99.90;;;;;;4902311;29;20975;-62
2023/01/30 01:33:15;;;;;;;42.37;24.07;;;3.10;99.90;;;;;;4903053;29;20473;-62
2023/01/30 01:35:42;;;;;;;35.80;23.23;;;3.10;99.90;;;;;;4903109;29;20443;-62
2023/01/30 01:38:10;;;;;;;37.13;22.37;;;3.10;99.90;;;;;;4903509;29;20934;-63
2023/01/30 01:43:25;;;;;;;39.60;22.20;;;3.10;99.90;;;;;;4902168;29;20600;-63
2023/01/30 01:45:57;;;;;;;35.30;22.33;;;3.20;99.90;;;;;;4903029;29;20469;-63
2023/01/30 01:48:29;;;;;;;36.40;21.40;;;3.20;99.90;;;;;;4902297;29;20447;-63
2023/01/30 01:50:59;;;;;;;33.70;20.47;;;3.20;99.90;;;;;;4902644;29;20465;-64
2023/01/30 01:53:30;;;;;;;32.70;20.30;;;3.20;99.90;;;;;;4901909;29;20480;-64
2023/01/30 01:55:59;;;;;;;36.20;21.63;;;3.20;99.90;;;;;;4902485;29;20476;-64
2023/01/30 01:58:32;;;;;;;37.70;22.43;;;3.20;99.90;;;;;;4902378;29;20469;-63
2023/01/30 02:01:00;;;;;;;39.37;22.77;;;3.20;99.90;;;;;;4902298;29;20528;-63
2023/01/30 02:03:32;;;;;;;38.00;22.17;;;3.20;99.90;;;;;;4902758;29;20867;-63
2023/01/30 02:06:02;;;;;;;35.43;21.33;;;3.30;99.90;;;;;;4905471;29;20470;-63
2023/01/30 02:08:34;;;;;;;39.70;25.40;;;3.20;99.90;;;;;;4906568;29;20484;-63
2023/01/30 02:11:09;;;;;;;45.20;24.87;;;3.30;99.90;;;;;;4905344;29;20473;-63
2023/01/30 02:13:37;;;;;;;38.23;23.93;;;3.30;99.90;;;;;;4906396;29;20473;-59
2023/01/30 02:16:06;;;;;;;47.20;24.40;;;3.40;99.90;;;;;;4905885;29;20909;-63
2023/01/30 02:18:36;;;;;;;45.50;23.80;;;3.40;99.90;;;;;;4905701;29;20462;-63
2023/01/30 02:21:34;;;;;;;44.83;26.87;;;3.40;99.90;;;;;;4905230;29;20476;-63
2023/01/30 02:24:31;;;;;;;44.87;27.70;;;3.50;99.90;;;;;;4905959;29;20469;-64
2023/01/30 02:27:33;;;;;;;43.90;24.47;;;3.40;99.90;;;;;;4885092;29;20477;-63
2023/01/30 02:33:20;;;;;;;36.47;22.30;;;3.50;99.90;;;;;;5051717;27;20573;-63
2023/01/30 02:35:56;;;;;;;39.80;24.73;;;3.50;99.90;;;;;;5051440;28;20469;-63
2023/01/30 02:38:35;;;;;;;46.03;25.33;;;3.50;99.90;;;;;;5050974;28;20462;-62
2023/01/30 02:41:15;;;;;;;46.03;25.20;;;3.50;99.90;;;;;;5051044;28;20491;-63
2023/01/30 02:43:52;;;;;;;43.63;24.77;;;3.50;99.90;;;;;;5050952;28;20560;-61
2023/01/30 02:46:26;;;;;;;43.63;24.23;;;3.60;99.90;;;;;;5050938;28;20743;-62
2023/01/30 02:48:59;;;;;;;43.43;24.23;;;3.60;99.90;;;;;;5051348;28;20458;-62
2023/01/30 02:51:29;;;;;;;43.00;23.60;;;3.60;99.90;;;;;;5051127;28;20494;-63
2023/01/30 02:53:57;;;;;;;40.97;23.70;;;3.60;99.90;;;;;;5051225;28;20459;-63
2023/01/30 02:56:24;;;;;;;40.63;23.50;;;3.50;99.90;;;;;;5051051;28;20462;-62
2023/01/30 02:58:56;;;;;;;39.50;25.77;;;3.60;99.90;;;;;;5051418;28;20466;-63
2023/01/30 03:01:52;;;;;;;41.07;25.10;;;3.60;99.90;;;;;;5051401;28;20466;-62
2023/01/30 03:04:35;;;;;;;42.47;24.50;;;3.60;99.90;;;;;;5050959;28;20466;-62
2023/01/30 03:07:22;;;;;;;41.67;24.30;;;3.60;99.90;;;;;;5050947;28;20736;-62
2023/01/30 03:09:57;;;;;;;44.20;24.20;;;3.60;99.90;;;;;;5051455;28;20462;-62
2023/01/30 03:12:34;;;;;;;42.73;22.93;;;3.60;99.90;;;;;;5051014;28;20533;-62
2023/01/30 03:15:05;;;;;;;44.00;25.20;;;3.60;99.90;;;;;;5051329;28;20466;-62
2023/01/30 03:17:34;;;;;;;42.30;25.87;;;3.60;99.90;;;;;;5051492;28;20869;-63
2023/01/30 03:20:03;;;;;;;46.73;27.23;;;3.60;99.90;;;;;;5051199;28;20474;-62
2023/01/30 03:22:30;;;;;;;42.33;24.37;;;3.70;99.90;;;;;;5051041;28;20508;-63
2023/01/30 03:24:57;;;;;;;42.13;25.27;;;3.60;99.90;;;;;;5050646;28;20477;-63
2023/01/30 03:27:25;;;;;;;48.47;26.37;;;3.70;99.90;;;;;;5050904;28;20459;-63
2023/01/30 03:29:52;;;;;;;44.20;26.23;;;3.60;99.90;;;;;;5051035;28;20462;-62
2023/01/30 03:32:19;;;;;;;45.70;25.97;;;3.70;99.90;;;;;;5050252;28;20525;-63
2023/01/30 03:34:46;;;;;;;45.00;24.97;;;3.70;99.90;;;;;;5050837;28;20462;-63
2023/01/30 03:37:15;;;;;;;46.77;26.13;;;3.70;99.90;;;;;;5050324;28;20466;-62
2023/01/30 03:39:42;;;;;;;50.00;26.87;;;3.70;99.90;;;;;;5050894;28;20465;-62
2023/01/30 03:42:09;;;;;;;45.67;25.50;;;3.70;99.90;;;;;;5050690;28;20458;-63
2023/01/30 03:44:36;;;;;;;42.33;24.77;;;3.70;99.90;;;;;;5037277;28;20466;-63
2023/01/30 03:47:03;;;;;;;49.27;27.37;;;3.70;99.90;;;;;;5037417;28;20438;-63
2023/01/30 03:49:30;;;;;;;40.43;26.10;;;3.70;99.90;;;;;;5038932;28;20911;-62
2023/01/30 03:51:58;;;;;;;45.50;26.50;;;3.70;99.90;;;;;;5037190;28;20476;-63
2023/01/30 03:54:26;;;;;;;39.73;24.00;;;3.80;99.90;;;;;;5036915;28;20459;-62
2023/01/30 03:56:53;;;;;;;40.20;26.47;;;3.70;99.90;;;;;;5037100;28;20477;-62
2023/01/30 03:59:20;;;;;;;42.00;26.03;;;3.70;99.90;;;;;;5037272;28;20872;-62
2023/01/30 04:01:47;;;;;;;43.63;23.90;;;3.70;99.90;;;;;;5037996;28;20464;-62
2023/01/30 04:04:14;;;;;;;44.23;26.23;;;3.80;99.90;;;;;;5037526;28;20467;-63
2023/01/30 04:06:41;;;;;;;39.97;24.60;;;3.80;99.90;;;;;;5037530;28;20468;-63
2023/01/30 04:09:08;;;;;;;40.10;23.80;;;3.80;99.90;;;;;;5037238;28;20462;-62
2023/01/30 04:11:37;;;;;;;50.33;26.57;;;3.80;99.90;;;;;;5036459;28;20495;-62
2023/01/30 04:14:04;;;;;;;44.07;23.60;;;3.80;99.90;;;;;;5035636;28;20479;-62
2023/01/30 04:16:31;;;;;;;45.23;26.27;;;3.90;99.90;;;;;;5035558;28;20733;-62
2023/01/30 04:18:58;;;;;;;44.23;24.63;;;3.90;99.90;;;;;;5035655;28;20464;-63
2023/01/30 04:21:25;;;;;;;42.93;24.67;;;3.90;99.90;;;;;;5036135;28;20759;-62
2023/01/30 04:23:52;;;;;;;46.30;27.87;;;3.90;99.90;;;;;;5035843;28;20430;-62
2023/01/30 04:26:20;;;;;;;49.07;27.80;;;3.90;99.90;;;;;;5036279;28;20441;-61
2023/01/30 04:28:48;;;;;;;41.20;26.97;;;3.90;99.90;;;;;;5036841;28;20470;-62
2023/01/30 04:31:15;;;;;;;42.87;26.70;;;3.90;99.90;;;;;;5036909;28;20782;-62
2023/01/30 04:33:42;;;;;;;43.87;25.80;;;3.90;99.90;;;;;;5037365;28;20789;-63
2023/01/30 04:36:10;;;;;;;44.97;26.80;;;3.90;99.90;;;;;;5036105;28;20434;-62
2023/01/30 04:38:38;;;;;;;38.37;26.07;;;4.00;99.90;;;;;;5037241;28;20475;-62
2023/01/30 04:41:05;;;;;;;39.87;23.93;;;4.00;99.90;;;;;;5036511;28;20467;-63
2023/01/30 04:43:33;;;;;;;40.90;24.37;;;3.90;99.90;;;;;;5037018;28;20433;-63
2023/01/30 04:46:01;;;;;;;36.73;23.30;;;4.00;99.90;;;;;;5036587;28;20445;-62
2023/01/30 04:48:28;;;;;;;44.40;25.10;;;4.00;99.90;;;;;;5036623;28;20442;-63
2023/01/30 04:50:56;;;;;;;38.13;24.90;;;4.00;99.90;;;;;;5036607;28;20726;-63
2023/01/30 04:53:24;;;;;;;41.80;24.80;;;4.00;99.90;;;;;;5036361;28;20484;-63
2023/01/30 04:55:52;;;;;;;35.53;23.20;;;4.00;99.90;;;;;;5035028;28;20445;-64
2023/01/30 04:58:19;;;;;;;35.97;23.10;;;4.00;99.90;;;;;;5036546;28;20462;-63
2023/01/30 05:00:46;;;;;;;36.10;22.03;;;4.00;99.90;;;;;;5036008;28;20532;-63
2023/01/30 05:03:15;;;;;;;40.13;23.73;;;4.10;99.90;;;;;;5035870;28;20463;-64
2023/01/30 05:05:45;;;;;;;34.63;23.47;;;4.10;99.90;;;;;;5036335;28;20464;-64
2023/01/30 05:08:12;;;;;;;36.00;23.90;;;4.00;99.90;;;;;;5035375;28;20464;-65
2023/01/30 05:10:40;;;;;;;34.97;22.00;;;4.00;99.90;;;;;;5035709;28;20442;-64
2023/01/30 05:13:07;;;;;;;32.97;22.63;;;4.10;99.90;;;;;;5035608;28;20491;-64
2023/01/30 05:15:34;;;;;;;37.57;20.90;;;4.10;99.90;;;;;;5035881;28;20735;-64
2023/01/30 05:18:01;;;;;;;34.07;19.30;;;4.10;99.90;;;;;;5035935;28;20473;-64
2023/01/30 05:20:30;;;;;;;32.63;19.70;;;4.10;99.90;;;;;;5035935;28;20450;-64
2023/01/30 05:26:19;;;;;;;28.30;19.33;;;4.10;99.90;;;;;;5035213;28;20443;-64
2023/01/30 05:28:51;;;;;;;28.40;18.67;;;4.10;99.90;;;;;;5034025;28;20463;-64
2023/01/30 05:31:19;;;;;;;31.90;20.70;;;4.20;99.90;;;;;;5034689;28;20927;-65
2023/01/30 05:33:48;;;;;;;34.23;21.57;;;4.20;99.90;;;;;;5035525;28;20495;-65
2023/01/30 05:36:18;;;;;;;30.50;18.73;;;4.20;99.90;;;;;;5033577;28;20463;-65
2023/01/30 05:38:46;;;;;;;28.90;19.63;;;4.20;99.90;;;;;;5033647;28;20885;-64
2023/01/30 05:41:15;;;;;;;27.43;19.10;;;4.20;99.90;;;;;;5028343;28;20467;-65
2023/01/30 05:43:42;;;;;;;31.53;20.73;;;4.20;99.90;;;;;;5033844;28;20466;-64
2023/01/30 05:46:13;;;;;;;29.87;21.00;;;4.30;99.90;;;;;;5033579;28;20750;-64
2023/01/30 05:48:41;;;;;;;26.80;19.23;;;4.30;99.90;;;;;;5026809;28;20773;-65
2023/01/30 05:51:18;;;;;;;28.40;19.90;;;4.30;99.90;;;;;;5017292;28;20472;-64
2023/01/30 05:53:45;;;;;;;29.30;19.80;;;4.30;99.90;;;;;;5033702;28;20781;-64
2023/01/30 05:56:12;;;;;;;33.27;20.83;;;4.30;99.90;;;;;;5016018;28;20743;-63
2023/01/30 05:58:39;;;;;;;34.40;20.00;;;4.30;99.90;;;;;;5034753;28;20463;-63
2023/01/30 06:01:10;;;;;;;33.03;20.10;;;4.40;99.90;;;;;;5031709;28;20771;-63
2023/01/30 06:03:38;;;;;;;36.23;20.47;;;4.40;99.90;;;;;;5033512;28;20478;-63
2023/01/30 06:06:06;;;;;;;36.97;21.17;;;4.40;99.90;;;;;;5034579;28;20528;-64
2023/01/30 06:08:35;;;;;;;32.27;20.40;;;4.40;99.90;;;;;;5034379;28;20464;-64
2023/01/30 06:11:02;;;;;;;29.40;20.80;;;4.50;99.90;;;;;;5034362;28;20433;-65
2023/01/30 06:13:30;;;;;;;29.53;19.87;;;4.40;99.90;;;;;;5033530;28;20584;-64
2023/01/30 06:15:59;;;;;;;29.37;18.17;;;4.50;99.90;;;;;;5034291;28;20545;-63
2023/01/30 06:18:27;;;;;;;29.93;19.50;;;4.50;99.90;;;;;;5033974;28;20532;-63
2023/01/30 06:20:54;;;;;;;26.30;18.07;;;4.50;99.90;;;;;;5032112;28;20460;-64
2023/01/30 06:23:22;;;;;;;31.40;19.83;;;4.60;99.90;;;;;;5031718;28;20466;-65
2023/01/30 06:25:52;;;;;;;29.13;18.73;;;4.60;99.90;;;;;;5031775;28;20467;-64
2023/01/30 06:28:20;;;;;;;27.80;18.80;;;4.60;99.90;;;;;;5031714;28;20471;-63
2023/01/30 06:30:47;;;;;;;30.70;19.60;;;4.60;99.90;;;;;;5031082;28;20770;-64
2023/01/30 06:33:15;;;;;;;26.27;20.10;;;4.60;99.90;;;;;;5032266;28;20502;-63
2023/01/30 06:35:43;;;;;;;26.77;18.47;;;4.70;99.90;;;;;;5031965;28;20471;-64
2023/01/30 06:38:13;;;;;;;26.80;19.27;;;4.70;99.90;;;;;;5033553;28;20750;-64
2023/01/30 06:40:41;;;;;;;29.53;18.33;;;4.70;99.90;;;;;;5033032;28;20788;-65
2023/01/30 06:43:09;;;;;;;29.83;20.67;;;4.70;99.90;;;;;;5033437;28;20783;-66
2023/01/30 06:45:37;;;;;;;26.63;18.10;;;4.70;99.90;;;;;;5033294;28;20441;-65
2023/01/30 06:48:04;;;;;;;25.50;17.37;;;4.70;99.90;;;;;;5032545;28;20537;-66
2023/01/30 06:50:32;;;;;;;26.97;18.20;;;4.70;99.90;;;;;;5032553;28;20539;-66
2023/01/30 06:53:02;;;;;;;25.17;18.10;;;4.70;99.90;;;;;;5032668;28;20530;-66
2023/01/30 06:55:29;;;;;;;23.57;16.90;;;4.80;99.90;;;;;;5032696;28;20462;-65
2023/01/30 06:58:04;;;;;;;24.37;17.10;;;4.80;99.90;;;;;;5032650;28;20437;-64
2023/01/30 07:00:33;;;;;;;22.20;15.70;;;4.80;99.90;;;;;;5032522;28;20463;-64
2023/01/30 07:03:00;;;;;;;22.70;16.60;;;4.80;99.90;;;;;;5032348;28;20579;-64
2023/01/30 07:05:28;;;;;;;26.67;17.27;;;4.80;99.90;;;;;;5032401;28;20880;-64
2023/01/30 07:07:56;;;;;;;23.60;16.17;;;4.80;99.90;;;;;;5032486;28;20463;-64
2023/01/30 07:10:25;;;;;;;24.70;16.33;;;4.90;99.90;;;;;;5031982;28;20442;-64
2023/01/30 07:12:52;;;;;;;23.70;16.20;;;4.90;99.90;;;;;;5031271;28;20491;-64
2023/01/30 07:15:19;;;;;;;23.07;16.37;;;5.00;99.90;;;;;;5032055;28;20450;-65
2023/01/30 07:17:48;;;;;;;24.60;17.10;;;5.00;99.90;;;;;;5032277;28;20473;-63
2023/01/30 07:20:15;;;;;;;22.83;17.60;;;5.00;99.90;;;;;;5036918;28;20753;-63
2023/01/30 07:22:42;;;;;;;22.60;17.70;;;5.10;99.90;;;;;;5036781;28;20458;-64
2023/01/30 07:25:10;;;;;;;30.37;18.77;;;5.10;99.90;;;;;;5036273;28;20470;-64
2023/01/30 07:27:37;;;;;;;24.57;17.87;;;5.10;99.90;;;;;;5037111;28;20758;-64
2023/01/30 07:30:05;;;;;;;22.33;17.43;;;5.20;99.90;;;;;;5037268;28;20463;-64
2023/01/30 07:32:33;;;;;;;28.87;18.20;;;5.20;99.90;;;;;;5036416;28;20919;-63
2023/01/30 07:35:01;;;;;;;24.60;16.97;;;5.20;99.90;;;;;;5036462;28;20466;-64
2023/01/30 07:37:28;;;;;;;27.77;17.30;;;5.20;99.90;;;;;;5036787;28;20471;-65
2023/01/30 07:39:55;;;;;;;29.57;16.60;;;5.20;99.90;;;;;;5036841;28;20767;-64
2023/01/30 07:42:22;;;;;;;26.60;17.70;;;5.20;99.90;;;;;;5035846;28;20438;-64
2023/01/30 07:44:50;;;;;;;28.83;19.67;;;5.30;99.90;;;;;;5036588;28;20792;-64
2023/01/30 07:47:18;;;;;;;31.27;19.60;;;5.30;99.90;;;;;;5036147;28;20528;-63
2023/01/30 07:49:46;;;;;;;27.50;18.73;;;5.30;99.90;;;;;;5036879;28;20534;-64
2023/01/30 07:52:14;;;;;;;27.60;17.33;;;5.30;99.90;;;;;;5036321;28;20444;-64
2023/01/30 07:54:41;;;;;;;27.53;20.23;;;5.40;99.90;;;;;;5036133;28;20518;-63
2023/01/30 07:57:08;;;;;;;28.50;18.47;;;5.40;99.90;;;;;;5035505;28;20510;-63
2023/01/30 07:59:35;;;;;;;23.37;18.57;;;5.50;99.90;;;;;;5035707;28;20491;-64
2023/01/30 08:02:02;;;;;;;31.10;17.30;;;5.40;99.90;;;;;;5033954;28;20545;-63
2023/01/30 08:04:30;;;;;;;27.30;18.03;;;5.40;99.90;;;;;;5034899;28;20895;-64
2023/01/30 08:06:57;;;;;;;23.03;16.30;;;5.40;99.90;;;;;;5034646;28;20465;-63
2023/01/30 08:09:25;;;;;;;22.73;17.37;;;5.40;99.90;;;;;;5034920;28;20969;-63
2023/01/30 08:11:52;;;;;;;27.90;18.23;;;5.40;99.90;;;;;;5033976;28;20502;-63
2023/01/30 08:14:20;;;;;;;33.17;17.57;;;5.40;99.90;;;;;;5033124;28;20495;-63
2023/01/30 08:16:47;;;;;;;24.03;15.67;;;5.50;99.90;;;;;;5034533;28;20506;-63
2023/01/30 08:19:14;;;;;;;28.17;16.20;;;5.50;99.90;;;;;;5034485;28;20470;-64
2023/01/30 08:21:41;;;;;;;21.00;15.57;;;5.40;99.90;;;;;;5037778;27;20503;-62
2023/01/30 08:24:09;;;;;;;23.20;14.63;;;5.40;99.90;;;;;;5034454;28;20528;-63
2023/01/30 08:26:37;;;;;;;24.83;15.73;;;5.40;99.90;;;;;;5034054;28;20473;-63
2023/01/30 08:29:04;;;;;;;24.50;15.57;;;5.40;99.90;;;;;;5035035;28;20468;-63
2023/01/30 08:31:32;;;;;;;22.30;13.97;;;5.50;99.90;;;;;;5034621;28;20490;-63
2023/01/30 08:33:59;;;;;;;25.67;14.23;;;5.50;99.90;;;;;;5034609;28;20842;-63
2023/01/30 08:36:26;;;;;;;22.60;15.43;;;5.40;99.90;;;;;;5035777;28;20924;-63
2023/01/30 08:38:53;;;;;;;27.30;15.60;;;5.50;99.90;;;;;;5035645;28;20902;-63
2023/01/30 08:41:20;;;;;;;21.57;14.63;;;5.50;99.90;;;;;;5035658;28;20463;-63
2023/01/30 08:43:49;;;;;;;22.50;15.00;;;5.70;99.90;;;;;;5035080;28;20863;-63
2023/01/30 08:46:16;;;;;;;21.70;14.50;;;5.80;99.90;;;;;;5034576;28;20473;-63
2023/01/30 08:48:44;;;;;;;17.90;13.60;;;5.80;99.90;;;;;;5032879;28;20462;-63
2023/01/30 08:51:11;;;;;;;20.80;14.20;;;5.70;99.90;;;;;;5032655;28;20438;-63
2023/01/30 08:53:38;;;;;;;23.53;14.37;;;5.70;99.90;;;;;;5032786;28;20951;-63
2023/01/30 08:56:05;;;;;;;21.30;14.77;;;5.70;99.90;;;;;;5032813;28;20464;-63
2023/01/30 08:58:32;;;;;;;20.17;14.83;;;5.80;99.90;;;;;;5032591;28;20442;-63
2023/01/30 09:01:05;;;;;;;20.53;14.67;;;5.70;99.90;;;;;;5055005;27;20438;-63
2023/01/30 09:03:32;;;;;;;25.37;14.90;;;5.70;99.90;;;;;;5035161;28;20461;-63
2023/01/30 09:05:59;;;;;;;24.93;15.03;;;5.70;99.90;;;;;;5032921;28;20475;-63
2023/01/30 09:08:27;;;;;;;19.53;13.80;;;5.60;99.90;;;;;;5035395;28;20770;-63
2023/01/30 09:10:58;;;;;;;22.70;13.83;;;5.60;99.90;;;;;;5034804;28;20437;-63
2023/01/30 09:13:25;;;;;;;23.27;13.27;;;5.60;99.90;;;;;;5034746;28;20943;-63
2023/01/30 09:15:52;;;;;;;21.60;13.03;;;5.60;99.90;;;;;;5035419;28;20558;-63
2023/01/30 09:18:21;;;;;;;16.33;11.37;;;5.60;99.90;;;;;;5034905;28;20472;-62
2023/01/30 09:20:48;;;;;;;22.03;12.17;;;5.70;99.90;;;;;;5034779;28;20448;-63
2023/01/30 09:23:15;;;;;;;24.93;10.50;;;5.70;99.90;;;;;;5035076;28;20463;-62
2023/01/30 09:25:45;;;;;;;17.90;9.80;;;5.60;99.90;;;;;;5035085;28;20467;-62
2023/01/30 09:28:12;;;;;;;23.83;9.13;;;5.60;99.90;;;;;;5033264;28;20463;-63
2023/01/30 09:30:39;;;;;;;19.13;9.63;;;5.70;99.90;;;;;;5033850;28;20467;-62
2023/01/30 09:33:06;;;;;;;18.97;9.30;;;5.70;99.90;;;;;;5034447;28;20491;-63
2023/01/30 09:35:35;;;;;;;29.20;10.40;;;5.70;99.90;;;;;;5034626;28;20455;-63
2023/01/30 09:38:03;;;;;;;14.83;8.63;;;5.70;99.90;;;;;;5034999;28;20475;-63
2023/01/30 09:40:32;;;;;;;16.77;7.40;;;5.70;99.90;;;;;;5034144;28;20471;-63
2023/01/30 09:43:12;;;;;;;13.53;8.53;;;5.60;99.90;;;;;;5034577;28;20842;-63
2023/01/30 09:45:53;;;;;;;17.83;8.13;;;5.70;99.90;;;;;;5034553;28;20751;-62
2023/01/30 09:48:27;;;;;;;14.10;7.43;;;5.60;99.90;;;;;;5033884;28;20463;-63
2023/01/30 09:51:11;;;;;;;12.03;6.63;;;5.70;99.90;;;;;;5033989;28;20531;-63
2023/01/30 09:54:00;;;;;;;13.17;6.87;;;5.70;99.90;;;;;;5034308;28;20483;-63
2023/01/30 09:56:27;;;;;;;14.77;6.43;;;5.70;99.90;;;;;;5033711;28;20466;-63
2023/01/30 09:58:57;;;;;;;14.03;6.70;;;5.70;99.90;;;;;;5034133;28;20474;-63
2023/01/30 10:01:33;;;;;;;12.23;5.53;;;5.70;99.90;;;;;;5034386;28;20481;-63
2023/01/30 10:04:09;;;;;;;12.57;6.30;;;5.70;99.90;;;;;;5034427;28;20459;-63
2023/01/30 10:06:52;;;;;;;17.87;6.37;;;5.60;99.90;;;;;;5034422;28;20482;-63
2023/01/30 10:09:30;;;;;;;15.30;6.33;;;5.60;99.90;;;;;;5034895;28;20463;-63
2023/01/30 10:12:13;;;;;;;13.90;6.40;;;5.70;99.90;;;;;;5034626;28;20459;-63
2023/01/30 10:15:00;;;;;;;13.17;7.20;;;5.70;99.90;;;;;;5020152;28;20487;-64
2023/01/30 10:17:39;;;;;;;20.30;5.80;;;5.70;99.90;;;;;;5034501;28;20509;-63
2023/01/30 10:20:31;;;;;;;14.73;6.20;;;5.70;99.90;;;;;;5034355;28;20765;-63
2023/01/30 10:23:28;;;;;;;15.50;6.93;;;5.60;99.90;;;;;;5034516;28;20469;-63
2023/01/30 10:25:58;;;;;;;10.03;5.47;;;5.60;99.90;;;;;;5001545;28;20463;-64
2023/01/30 10:28:29;;;;;;;18.90;5.87;;;5.60;99.90;;;;;;5034092;28;20755;-63
2023/01/30 10:31:03;;;;;;;14.97;5.63;;;5.60;99.90;;;;;;5087056;28;20757;-63
2023/01/30 10:33:34;;;;;;;12.87;5.40;;;5.60;99.90;;;;;;5083781;28;20763;-63
2023/01/30 10:36:06;;;;;;;16.00;5.17;;;5.50;99.90;;;;;;5029355;28;20479;-64
2023/01/30 10:38:41;;;;;;;11.67;4.80;;;5.50;99.90;;;;;;5021897;28;20472;-64
2023/01/30 10:41:20;;;;;;;11.60;5.70;;;5.60;99.90;;;;;;5032901;28;20475;-64
2023/01/30 10:43:54;;;;;;;13.23;5.33;;;5.60;99.90;;;;;;5032416;28;20733;-64
2023/01/30 10:46:46;;;;;;;16.83;7.17;;;5.60;99.90;;;;;;5032618;28;20463;-64
2023/01/30 10:49:19;;;;;;;27.33;13.70;;;5.70;99.90;;;;;;5032615;28;20516;-64
2023/01/30 10:51:57;;;;;;;22.63;8.07;;;5.70;99.90;;;;;;5032578;28;20459;-64
2023/01/30 10:54:32;;;;;;;17.07;5.97;;;5.70;99.90;;;;;;5043344;28;20513;-65
2023/01/30 10:57:10;;;;;;;14.10;4.67;;;5.80;99.90;;;;;;5032717;28;20482;-65
2023/01/30 10:59:48;;;;;;;14.70;5.40;;;5.80;1.00;;;;;;5034160;28;20467;-64
2023/01/30 11:02:24;;;;;;;27.10;8.67;;;5.80;1.00;;;;;;5036515;28;20462;-65
2023/01/30 11:04:58;;;;;;;16.93;7.80;;;5.90;1.00;;;;;;5035176;28;20463;-65
2023/01/30 11:07:25;;;;;;;20.03;5.13;;;5.90;99.90;;;;;;5036867;28;20882;-65
2023/01/30 11:09:54;;;;;;;20.70;7.23;;;5.90;1.00;;;;;;5037232;28;20902;-65
2023/01/30 11:12:21;;;;;;;13.57;4.73;;;5.90;99.90;;;;;;5036562;28;20455;-67
2023/01/30 11:14:53;;;;;;;17.13;8.73;;;6.00;99.90;;;;;;5036903;28;20585;-66
2023/01/30 11:17:28;;;;;;;16.10;6.73;;;6.00;1.00;;;;;;5036933;28;20464;-65
2023/01/30 11:19:57;;;;;;;20.37;5.00;;;6.00;1.00;;;;;;5037187;28;20450;-65
2023/01/30 11:22:26;;;;;;;17.23;5.53;;;6.00;1.00;;;;;;5036414;28;20463;-65
2023/01/30 11:25:07;;;;;;;12.37;5.13;;;5.90;99.90;;;;;;5036727;28;20541;-65
2023/01/30 11:27:35;;;;;;;17.87;4.50;;;5.90;99.90;;;;;;5036918;28;20466;-65
2023/01/30 11:30:13;;;;;;;15.07;4.90;;;6.00;99.90;;;;;;5037056;28;20528;-65
2023/01/30 11:32:46;;;;;;;13.37;5.03;;;6.10;99.90;;;;;;5026565;28;20499;-65
2023/01/30 11:35:33;;;;;;;12.73;4.93;;;6.20;99.90;;;;;;5030589;28;20517;-65
2023/01/30 11:38:13;;;;;;;19.00;5.70;;;6.10;56.00;;;;;;5034573;28;20438;-65
2023/01/30 11:40:42;;;;;;;12.83;4.43;;;6.10;1.00;;;;;;5030220;28;20471;-64
2023/01/30 11:43:13;;;;;;;10.00;4.50;;;6.10;1.00;;;;;;5032611;28;20477;-65
2023/01/30 11:45:42;;;;;;;12.90;4.43;;;6.10;1.00;;;;;;5033195;28;20438;-65
2023/01/30 11:48:18;;;;;;;8.90;4.57;;;6.10;1.00;;;;;;5034486;28;20467;-65
2023/01/30 11:50:47;;;;;;;13.80;4.53;;;6.10;1.00;;;;;;5035602;28;20463;-65
2023/01/30 11:53:21;;;;;;;11.80;3.90;;;6.20;1.00;;;;;;5037570;28;20477;-65
2023/01/30 11:55:50;;;;;;;11.17;4.70;;;6.30;1.00;;;;;;5042040;28;20501;-66
2023/01/30 11:58:18;;;;;;;13.00;4.23;;;6.30;1.00;;;;;;5034942;28;20464;-64
2023/01/30 12:00:48;;;;;;;14.67;4.43;;;6.40;1.00;;;;;;5036070;28;20937;-65
2023/01/30 12:03:19;;;;;;;11.37;3.87;;;6.40;99.90;;;;;;5035751;28;20449;-65
2023/01/30 12:05:47;;;;;;;12.87;4.40;;;6.30;99.90;;;;;;5035376;28;20463;-65
2023/01/30 12:08:27;;;;;;;13.43;4.10;;;6.40;99.90;;;;;;5034654;28;20754;-65
2023/01/30 12:10:59;;;;;;;15.33;5.00;;;6.40;99.90;;;;;;5036192;28;20550;-66
2023/01/30 12:13:32;;;;;;;10.83;3.60;;;6.50;99.90;;;;;;5036246;28;20547;-66
2023/01/30 12:16:16;;;;;;;20.70;4.93;;;6.50;99.90;;;;;;5036248;28;20501;-64
2023/01/30 12:18:50;;;;;;;12.97;5.50;;;6.50;99.90;;;;;;5035508;28;20463;-64
2023/01/30 12:21:35;;;;;;;12.60;4.00;;;6.50;99.90;;;;;;5035848;28;20772;-64
2023/01/30 12:24:17;;;;;;;10.50;3.80;;;6.50;99.90;;;;;;5017634;28;20468;-64
2023/01/30 12:26:50;;;;;;;13.23;3.73;;;6.60;99.90;;;;;;5035872;28;20455;-64
2023/01/30 12:29:27;;;;;;;15.97;4.43;;;6.50;99.90;;;;;;5036045;28;20440;-65
2023/01/30 12:32:05;;;;;;;13.50;3.90;;;6.60;73.30;;;;;;5035610;28;20482;-65
2023/01/30 12:34:32;;;;;;;11.23;4.03;;;6.50;7.10;;;;;;5035662;28;20965;-63
2023/01/30 12:37:12;;;;;;;9.97;3.60;;;6.50;1.00;;;;;;5035962;28;20445;-64
2023/01/30 12:39:52;;;;;;;13.80;3.73;;;6.50;1.00;;;;;;5035980;28;20894;-64
2023/01/30 12:42:36;;;;;;;11.60;4.40;;;6.50;1.00;;;;;;5035470;28;20459;-64
2023/01/30 12:45:19;;;;;;;13.00;4.33;;;6.50;1.00;;;;;;5035354;28;20762;-64
2023/01/30 12:48:04;;;;;;;10.20;4.30;;;6.50;1.00;;;;;;5035722;28;20863;-65
2023/01/30 12:50:42;;;;;;;12.53;3.53;;;6.50;1.00;;;;;;5034744;28;20459;-65
2023/01/30 12:53:26;;;;;;;14.50;3.70;;;6.50;1.00;;;;;;5035496;28;20442;-65
2023/01/30 12:56:09;;;;;;;8.57;3.40;;;6.60;1.00;;;;;;5035604;28;20502;-65
2023/01/30 12:58:44;;;;;;;12.83;3.83;;;6.50;1.00;;;;;;5034878;28;20459;-65
2023/01/30 13:01:23;;;;;;;11.87;3.57;;;6.40;1.00;;;;;;5034978;28;20459;-65
2023/01/30 13:03:58;;;;;;;13.27;5.20;;;6.30;1.00;;;;;;5038611;28;20469;-65
2023/01/30 13:06:40;;;;;;;19.50;4.20;;;6.30;1.00;;;;;;5033611;28;20770;-65
2023/01/30 13:09:34;;;;;;;12.17;4.40;;;6.40;1.00;;;;;;5034657;28;20459;-65
2023/01/30 13:12:09;;;;;;;16.27;4.67;;;6.40;1.00;;;;;;5035159;28;20506;-65
2023/01/30 13:14:45;;;;;;;10.80;4.40;;;6.40;1.00;;;;;;5034162;28;21127;-65
2023/01/30 13:17:30;;;;;;;9.83;4.00;;;6.50;1.00;;;;;;5024069;28;20463;-65
2023/01/30 13:20:05;;;;;;;15.87;4.77;;;6.50;1.00;;;;;;5034275;28;20486;-66
2023/01/30 13:22:41;;;;;;;10.83;3.60;;;6.50;1.00;;;;;;5034268;28;20467;-65